Time;durP1;ratioP1;P1;durP2;ratioP2;P2;SDS_P1;SDS_P2;PMS_P1;PMS_P2;Temp;Humidity;BMP_temperature;BMP_pressure;BME280_temperature;BME280_humidity;BME280_pressure;Samples;Min_cycle;Max_cycle;Signal;HPM_P1;HPM_P2
2019/07/17 00:00:23;;;;;;;8.100001;6.35;;;;;;;13.6;82.46191;95169.9;;;;
2019/07/17 00:01:24;;;;;;;8.100001;6.35;;;;;;;13.6;82.46191;95169.9;;;;
2019/07/17 00:02:25;;;;;;;8.100001;6.35;;;;;;;13.6;82.46191;95169.9;;;;
2019/07/17 00:03:27;;;;;;;8.100001;6.35;;;;;;;13.6;82.46191;95169.9;;;;
2019/07/17 00:04:28;;;;;;;7.45;6.750001;;;;;;;13.45;82.89551;95175.17;;;;
2019/07/17 00:05:29;;;;;;;7.45;6.750001;;;;;;;13.45;82.89551;95175.17;;;;
2019/07/17 00:06:30;;;;;;;7.45;6.750001;;;;;;;13.45;82.89551;95175.17;;;;
2019/07/17 00:07:31;;;;;;;7.45;6.750001;;;;;;;13.45;82.89551;95175.17;;;;
2019/07/17 00:08:32;;;;;;;7.45;6.750001;;;;;;;13.45;82.89551;95175.17;;;;
2019/07/17 00:09:33;;;;;;;7.45;6.750001;;;;;;;13.45;82.89551;95175.17;;;;
2019/07/17 00:10:34;;;;;;;7.45;6.750001;;;;;;;13.45;82.89551;95175.17;;;;
2019/07/17 00:11:35;;;;;;;7.45;6.750001;;;;;;;13.45;82.89551;95175.17;;;;
2019/07/17 00:12:37;;;;;;;7.45;6.750001;;;;;;;13.45;82.89551;95175.17;;;;
2019/07/17 00:13:38;;;;;;;7.45;6.750001;;;;;;;13.45;82.89551;95175.17;;;;
2019/07/17 00:14:39;;;;;;;8;6.8;;;;;;;13.38;83.5166;95173.07;;;;
2019/07/17 00:15:40;;;;;;;8;6.8;;;;;;;13.38;83.5166;95173.07;;;;
2019/07/17 00:16:41;;;;;;;8;6.8;;;;;;;13.38;83.5166;95173.07;;;;
2019/07/17 00:17:42;;;;;;;8;6.8;;;;;;;13.38;83.5166;95173.07;;;;
2019/07/17 00:18:43;;;;;;;8;6.8;;;;;;;13.38;83.5166;95173.07;;;;
2019/07/17 00:19:44;;;;;;;8;6.8;;;;;;;13.38;83.5166;95173.07;;;;
2019/07/17 00:20:45;;;;;;;8;6.8;;;;;;;13.38;83.5166;95173.07;;;;
2019/07/17 00:21:47;;;;;;;8;6.8;;;;;;;13.38;83.5166;95173.07;;;;
2019/07/17 00:22:48;;;;;;;8;6.8;;;;;;;13.38;83.5166;95173.07;;;;
2019/07/17 00:23:49;;;;;;;8;6.8;;;;;;;13.38;83.5166;95173.07;;;;
2019/07/17 00:24:50;;;;;;;8;6.8;;;;;;;13.38;83.5166;95173.07;;;;
2019/07/17 00:25:51;;;;;;;7.449999;6.7;;;;;;;13.24;83.96289;95174.55;;;;
2019/07/17 00:26:52;;;;;;;7.449999;6.7;;;;;;;13.24;83.96289;95174.55;;;;
2019/07/17 00:27:53;;;;;;;7.449999;6.7;;;;;;;13.24;83.96289;95174.55;;;;
2019/07/17 00:28:54;;;;;;;7.449999;6.7;;;;;;;13.24;83.96289;95174.55;;;;
2019/07/17 00:29:55;;;;;;;7.449999;6.7;;;;;;;13.24;83.96289;95174.55;;;;
2019/07/17 00:30:56;;;;;;;7.449999;6.7;;;;;;;13.24;83.96289;95174.55;;;;
2019/07/17 00:31:57;;;;;;;7.449999;6.7;;;;;;;13.24;83.96289;95174.55;;;;
2019/07/17 00:32:58;;;;;;;7.449999;6.7;;;;;;;13.24;83.96289;95174.55;;;;
2019/07/17 00:34:00;;;;;;;7.449999;6.7;;;;;;;13.24;83.96289;95174.55;;;;
2019/07/17 00:35:01;;;;;;;7.449999;6.7;;;;;;;13.24;83.96289;95174.55;;;;
2019/07/17 00:36:02;;;;;;;7.9;7.100001;;;;;;;13.2;84.55469;95166.78;;;;
2019/07/17 00:37:03;;;;;;;7.9;7.100001;;;;;;;13.2;84.55469;95166.78;;;;
2019/07/17 00:38:04;;;;;;;7.9;7.100001;;;;;;;13.2;84.55469;95166.78;;;;
2019/07/17 00:39:05;;;;;;;7.9;7.100001;;;;;;;13.2;84.55469;95166.78;;;;
2019/07/17 00:40:06;;;;;;;7.9;7.100001;;;;;;;13.2;84.55469;95166.78;;;;
2019/07/17 00:41:08;;;;;;;7.9;7.100001;;;;;;;13.2;84.55469;95166.78;;;;
2019/07/17 00:42:09;;;;;;;7.9;7.100001;;;;;;;13.2;84.55469;95166.78;;;;
2019/07/17 00:43:10;;;;;;;7.9;7.100001;;;;;;;13.2;84.55469;95166.78;;;;
2019/07/17 00:44:11;;;;;;;7.9;7.100001;;;;;;;13.2;84.55469;95166.78;;;;
2019/07/17 00:45:12;;;;;;;7.9;7.100001;;;;;;;13.2;84.55469;95166.78;;;;
2019/07/17 00:46:14;;;;;;;7.9;7.100001;;;;;;;13.2;84.55469;95166.78;;;;
2019/07/17 00:47:15;;;;;;;7.65;6.849999;;;;;;;13.08;84.96191;95160.96;;;;
2019/07/17 00:48:16;;;;;;;7.65;6.849999;;;;;;;13.08;84.96191;95160.96;;;;
2019/07/17 00:49:17;;;;;;;7.65;6.849999;;;;;;;13.08;84.96191;95160.96;;;;
2019/07/17 00:50:19;;;;;;;7.65;6.849999;;;;;;;13.08;84.96191;95160.96;;;;
2019/07/17 00:51:20;;;;;;;7.65;6.849999;;;;;;;13.08;84.96191;95160.96;;;;
2019/07/17 00:52:21;;;;;;;7.65;6.849999;;;;;;;13.08;84.96191;95160.96;;;;
2019/07/17 00:53:22;;;;;;;7.65;6.849999;;;;;;;13.08;84.96191;95160.96;;;;
2019/07/17 00:54:23;;;;;;;7.65;6.849999;;;;;;;13.08;84.96191;95160.96;;;;
2019/07/17 00:55:24;;;;;;;7.65;6.849999;;;;;;;13.08;84.96191;95160.96;;;;
2019/07/17 00:56:25;;;;;;;7.65;6.849999;;;;;;;13.08;84.96191;95160.96;;;;
2019/07/17 00:57:26;;;;;;;8;6.799999;;;;;;;13.02;85.36914;95160.6;;;;
2019/07/17 00:58:27;;;;;;;8;6.799999;;;;;;;13.02;85.36914;95160.6;;;;
2019/07/17 00:59:29;;;;;;;8;6.799999;;;;;;;13.02;85.36914;95160.6;;;;
2019/07/17 01:00:30;;;;;;;8;6.799999;;;;;;;13.02;85.36914;95160.6;;;;
2019/07/17 01:01:54;;;;;;;8;6.799999;;;;;;;13.02;85.36914;95160.6;;;;
2019/07/17 01:02:56;;;;;;;8;6.799999;;;;;;;13.02;85.36914;95160.6;;;;
2019/07/17 01:03:57;;;;;;;8;6.799999;;;;;;;13.02;85.36914;95160.6;;;;
2019/07/17 01:04:58;;;;;;;8;6.799999;;;;;;;13.02;85.36914;95160.6;;;;
2019/07/17 01:05:59;;;;;;;8;6.799999;;;;;;;13.02;85.36914;95160.6;;;;
2019/07/17 01:07:01;;;;;;;8;6.799999;;;;;;;13.02;85.36914;95160.6;;;;
2019/07/17 01:08:02;;;;;;;8;6.799999;;;;;;;13.02;85.36914;95160.6;;;;
2019/07/17 01:09:03;;;;;;;8;6.799999;;;;;;;13.02;85.36914;95160.6;;;;
2019/07/17 01:10:05;;;;;;;8;6.799999;;;;;;;13.02;85.36914;95160.6;;;;
2019/07/17 01:11:07;;;;;;;8;6.799999;;;;;;;13.02;85.36914;95160.6;;;;
2019/07/17 01:12:08;;;;;;;8;6.799999;;;;;;;13.02;85.36914;95160.6;;;;
2019/07/17 01:13:09;;;;;;;8;6.799999;;;;;;;13.02;85.36914;95160.6;;;;
2019/07/17 01:14:10;;;;;;;8;6.799999;;;;;;;13.02;85.36914;95160.6;;;;
2019/07/17 01:15:11;;;;;;;8;6.799999;;;;;;;13.02;85.36914;95160.6;;;;
2019/07/17 01:16:13;;;;;;;8;6.799999;;;;;;;13.02;85.36914;95160.6;;;;
2019/07/17 01:17:14;;;;;;;8;6.799999;;;;;;;13.02;85.36914;95160.6;;;;
2019/07/17 01:18:16;;;;;;;8;6.799999;;;;;;;13.02;85.36914;95160.6;;;;
2019/07/17 01:19:17;;;;;;;7.35;6.649999;;;;;;;12.99;85.77148;95139.4;;;;
2019/07/17 01:20:18;;;;;;;7.35;6.649999;;;;;;;12.99;85.77148;95139.4;;;;
2019/07/17 01:21:19;;;;;;;7.35;6.649999;;;;;;;12.99;85.77148;95139.4;;;;
2019/07/17 01:22:20;;;;;;;7.35;6.649999;;;;;;;12.99;85.77148;95139.4;;;;
2019/07/17 01:23:22;;;;;;;7.35;6.649999;;;;;;;12.99;85.77148;95139.4;;;;
2019/07/17 01:24:23;;;;;;;7.35;6.649999;;;;;;;12.99;85.77148;95139.4;;;;
2019/07/17 01:25:24;;;;;;;7.35;6.649999;;;;;;;12.99;85.77148;95139.4;;;;
2019/07/17 01:26:25;;;;;;;7.35;6.649999;;;;;;;12.99;85.77148;95139.4;;;;
2019/07/17 01:27:26;;;;;;;7.35;6.649999;;;;;;;12.99;85.77148;95139.4;;;;
2019/07/17 01:28:28;;;;;;;7.35;6.649999;;;;;;;12.99;85.77148;95139.4;;;;
2019/07/17 01:29:29;;;;;;;8.15;6.75;;;;;;;12.78;86.16895;95128.17;;;;
2019/07/17 01:30:30;;;;;;;8.15;6.75;;;;;;;12.78;86.16895;95128.17;;;;
2019/07/17 01:31:31;;;;;;;8.15;6.75;;;;;;;12.78;86.16895;95128.17;;;;
2019/07/17 01:32:32;;;;;;;8.15;6.75;;;;;;;12.78;86.16895;95128.17;;;;
2019/07/17 01:33:34;;;;;;;8.15;6.75;;;;;;;12.78;86.16895;95128.17;;;;
2019/07/17 01:34:35;;;;;;;8.15;6.75;;;;;;;12.78;86.16895;95128.17;;;;
2019/07/17 01:35:36;;;;;;;8.15;6.75;;;;;;;12.78;86.16895;95128.17;;;;
2019/07/17 01:36:37;;;;;;;8.15;6.75;;;;;;;12.78;86.16895;95128.17;;;;
2019/07/17 01:37:38;;;;;;;8.15;6.75;;;;;;;12.78;86.16895;95128.17;;;;
2019/07/17 01:38:39;;;;;;;8.15;6.75;;;;;;;12.78;86.16895;95128.17;;;;
2019/07/17 01:39:40;;;;;;;7.45;6.75;;;;;;;12.65;86.81738;95123.96;;;;
2019/07/17 01:40:42;;;;;;;7.45;6.75;;;;;;;12.65;86.81738;95123.96;;;;
2019/07/17 01:41:43;;;;;;;7.45;6.75;;;;;;;12.65;86.81738;95123.96;;;;
2019/07/17 01:42:44;;;;;;;7.45;6.75;;;;;;;12.65;86.81738;95123.96;;;;
2019/07/17 01:43:45;;;;;;;7.45;6.75;;;;;;;12.65;86.81738;95123.96;;;;
2019/07/17 01:44:46;;;;;;;7.45;6.75;;;;;;;12.65;86.81738;95123.96;;;;
2019/07/17 01:45:47;;;;;;;7.45;6.75;;;;;;;12.65;86.81738;95123.96;;;;
2019/07/17 01:46:49;;;;;;;7.45;6.75;;;;;;;12.65;86.81738;95123.96;;;;
2019/07/17 01:47:50;;;;;;;7.45;6.75;;;;;;;12.65;86.81738;95123.96;;;;
2019/07/17 01:48:51;;;;;;;7.45;6.75;;;;;;;12.65;86.81738;95123.96;;;;
2019/07/17 01:49:52;;;;;;;7.45;6.75;;;;;;;12.65;86.81738;95123.96;;;;
2019/07/17 01:50:54;;;;;;;7.45;6.75;;;;;;;12.65;86.81738;95123.96;;;;
2019/07/17 01:51:55;;;;;;;7.45;6.75;;;;;;;12.65;86.81738;95123.96;;;;
2019/07/17 01:52:57;;;;;;;7.45;6.75;;;;;;;12.65;86.81738;95123.96;;;;
2019/07/17 01:53:58;;;;;;;7.45;6.75;;;;;;;12.65;86.81738;95123.96;;;;
2019/07/17 01:54:59;;;;;;;7.45;6.75;;;;;;;12.65;86.81738;95123.96;;;;
2019/07/17 01:56:00;;;;;;;7.45;6.75;;;;;;;12.65;86.81738;95123.96;;;;
2019/07/17 01:57:02;;;;;;;7.45;6.75;;;;;;;12.65;86.81738;95123.96;;;;
2019/07/17 01:58:03;;;;;;;7.45;6.75;;;;;;;12.65;86.81738;95123.96;;;;
2019/07/17 01:59:04;;;;;;;7.45;6.75;;;;;;;12.65;86.81738;95123.96;;;;
2019/07/17 02:00:05;;;;;;;7.45;6.75;;;;;;;12.65;86.81738;95123.96;;;;
2019/07/17 02:01:07;;;;;;;7.45;6.75;;;;;;;12.65;86.81738;95123.96;;;;
2019/07/17 02:02:08;;;;;;;8.05;7.1;;;;;;;12.42;87.81152;95120.98;;;;
2019/07/17 02:03:10;;;;;;;8.05;7.1;;;;;;;12.42;87.81152;95120.98;;;;
2019/07/17 02:04:11;;;;;;;8.05;7.1;;;;;;;12.42;87.81152;95120.98;;;;
2019/07/17 02:05:12;;;;;;;8.05;7.1;;;;;;;12.42;87.81152;95120.98;;;;
2019/07/17 02:06:14;;;;;;;8.05;7.1;;;;;;;12.42;87.81152;95120.98;;;;
2019/07/17 02:07:15;;;;;;;8.05;7.1;;;;;;;12.42;87.81152;95120.98;;;;
2019/07/17 02:08:16;;;;;;;8.05;7.1;;;;;;;12.42;87.81152;95120.98;;;;
2019/07/17 02:09:17;;;;;;;8.05;7.1;;;;;;;12.42;87.81152;95120.98;;;;
2019/07/17 02:10:18;;;;;;;8.05;7.1;;;;;;;12.42;87.81152;95120.98;;;;
2019/07/17 02:11:21;;;;;;;8.05;7.1;;;;;;;12.42;87.81152;95120.98;;;;
2019/07/17 02:12:22;;;;;;;8.449999;7.3;;;;;;;12.27;88.51953;95101.4;;;;
2019/07/17 02:13:24;;;;;;;8.449999;7.3;;;;;;;12.27;88.51953;95101.4;;;;
2019/07/17 02:14:25;;;;;;;8.449999;7.3;;;;;;;12.27;88.51953;95101.4;;;;
2019/07/17 02:15:26;;;;;;;8.449999;7.3;;;;;;;12.27;88.51953;95101.4;;;;
2019/07/17 02:16:27;;;;;;;8.449999;7.3;;;;;;;12.27;88.51953;95101.4;;;;
2019/07/17 02:17:28;;;;;;;8.449999;7.3;;;;;;;12.27;88.51953;95101.4;;;;
2019/07/17 02:18:30;;;;;;;8.449999;7.3;;;;;;;12.27;88.51953;95101.4;;;;
2019/07/17 02:19:31;;;;;;;8.449999;7.3;;;;;;;12.27;88.51953;95101.4;;;;
2019/07/17 02:20:32;;;;;;;8.449999;7.3;;;;;;;12.27;88.51953;95101.4;;;;
2019/07/17 02:21:33;;;;;;;8.449999;7.3;;;;;;;12.27;88.51953;95101.4;;;;
2019/07/17 02:22:34;;;;;;;8.199999;7.4;;;;;;;12.27;89.29785;95100.61;;;;
2019/07/17 02:23:35;;;;;;;8.199999;7.4;;;;;;;12.27;89.29785;95100.61;;;;
2019/07/17 02:24:36;;;;;;;8.199999;7.4;;;;;;;12.27;89.29785;95100.61;;;;
2019/07/17 02:25:38;;;;;;;8.199999;7.4;;;;;;;12.27;89.29785;95100.61;;;;
2019/07/17 02:26:44;;;;;;;8.199999;7.4;;;;;;;12.27;89.29785;95100.61;;;;
2019/07/17 02:27:46;;;;;;;8.199999;7.4;;;;;;;12.27;89.29785;95100.61;;;;
2019/07/17 02:28:47;;;;;;;8.199999;7.4;;;;;;;12.27;89.29785;95100.61;;;;
2019/07/17 02:29:48;;;;;;;8.199999;7.4;;;;;;;12.27;89.29785;95100.61;;;;
2019/07/17 02:30:49;;;;;;;8.199999;7.4;;;;;;;12.27;89.29785;95100.61;;;;
2019/07/17 02:31:50;;;;;;;8.199999;7.4;;;;;;;12.27;89.29785;95100.61;;;;
2019/07/17 02:32:51;;;;;;;8.199999;7.4;;;;;;;12.27;89.29785;95100.61;;;;
2019/07/17 02:33:52;;;;;;;8.9;7.75;;;;;;;12.3;90.00293;95086.44;;;;
2019/07/17 02:34:56;;;;;;;8.9;7.75;;;;;;;12.3;90.00293;95086.44;;;;
2019/07/17 02:35:57;;;;;;;8.9;7.75;;;;;;;12.3;90.00293;95086.44;;;;
2019/07/17 02:36:58;;;;;;;8.9;7.75;;;;;;;12.3;90.00293;95086.44;;;;
2019/07/17 02:37:59;;;;;;;8.9;7.75;;;;;;;12.3;90.00293;95086.44;;;;
2019/07/17 02:39:00;;;;;;;8.9;7.75;;;;;;;12.3;90.00293;95086.44;;;;
2019/07/17 02:40:02;;;;;;;8.9;7.75;;;;;;;12.3;90.00293;95086.44;;;;
2019/07/17 02:41:04;;;;;;;8.9;7.75;;;;;;;12.3;90.00293;95086.44;;;;
2019/07/17 02:42:06;;;;;;;8.9;7.75;;;;;;;12.3;90.00293;95086.44;;;;
2019/07/17 02:43:07;;;;;;;8.9;7.75;;;;;;;12.3;90.00293;95086.44;;;;
2019/07/17 02:44:09;;;;;;;8.450002;7.650001;;;;;;;12.45;90.69531;95075.37;;;;
2019/07/17 02:45:10;;;;;;;8.450002;7.650001;;;;;;;12.45;90.69531;95075.37;;;;
2019/07/17 02:46:11;;;;;;;8.450002;7.650001;;;;;;;12.45;90.69531;95075.37;;;;
2019/07/17 02:47:13;;;;;;;8.450002;7.650001;;;;;;;12.45;90.69531;95075.37;;;;
2019/07/17 02:48:15;;;;;;;8.450002;7.650001;;;;;;;12.45;90.69531;95075.37;;;;
2019/07/17 02:49:17;;;;;;;8.450002;7.650001;;;;;;;12.45;90.69531;95075.37;;;;
2019/07/17 02:50:18;;;;;;;8.450002;7.650001;;;;;;;12.45;90.69531;95075.37;;;;
2019/07/17 02:51:20;;;;;;;8.450002;7.650001;;;;;;;12.45;90.69531;95075.37;;;;
2019/07/17 02:52:21;;;;;;;8.450002;7.650001;;;;;;;12.45;90.69531;95075.37;;;;
2019/07/17 02:53:23;;;;;;;8.450002;7.650001;;;;;;;12.45;90.69531;95075.37;;;;
2019/07/17 02:54:24;;;;;;;9.9;8.5;;;;;;;12.48;91.03223;95084.89;;;;
2019/07/17 02:55:25;;;;;;;9.9;8.5;;;;;;;12.48;91.03223;95084.89;;;;
2019/07/17 02:56:29;;;;;;;9.9;8.5;;;;;;;12.48;91.03223;95084.89;;;;
2019/07/17 02:57:30;;;;;;;9.9;8.5;;;;;;;12.48;91.03223;95084.89;;;;
2019/07/17 02:58:31;;;;;;;9.9;8.5;;;;;;;12.48;91.03223;95084.89;;;;
2019/07/17 02:59:32;;;;;;;9.9;8.5;;;;;;;12.48;91.03223;95084.89;;;;
2019/07/17 03:00:33;;;;;;;9.9;8.5;;;;;;;12.48;91.03223;95084.89;;;;
2019/07/17 03:01:34;;;;;;;9.9;8.5;;;;;;;12.48;91.03223;95084.89;;;;
2019/07/17 03:02:35;;;;;;;9.9;8.5;;;;;;;12.48;91.03223;95084.89;;;;
2019/07/17 03:03:36;;;;;;;9.9;8.5;;;;;;;12.48;91.03223;95084.89;;;;
2019/07/17 03:04:38;;;;;;;9.9;8.5;;;;;;;12.48;91.03223;95084.89;;;;
2019/07/17 03:05:39;;;;;;;8.5;7.699999;;;;;;;12.54;91.61035;95077.12;;;;
2019/07/17 03:06:40;;;;;;;8.5;7.699999;;;;;;;12.54;91.61035;95077.12;;;;
2019/07/17 03:07:41;;;;;;;8.5;7.699999;;;;;;;12.54;91.61035;95077.12;;;;
2019/07/17 03:08:42;;;;;;;8.5;7.699999;;;;;;;12.54;91.61035;95077.12;;;;
2019/07/17 03:09:43;;;;;;;8.5;7.699999;;;;;;;12.54;91.61035;95077.12;;;;
2019/07/17 03:10:44;;;;;;;8.5;7.699999;;;;;;;12.54;91.61035;95077.12;;;;
2019/07/17 03:11:45;;;;;;;8.5;7.699999;;;;;;;12.54;91.61035;95077.12;;;;
2019/07/17 03:12:46;;;;;;;8.5;7.699999;;;;;;;12.54;91.61035;95077.12;;;;
2019/07/17 03:13:48;;;;;;;8.5;7.699999;;;;;;;12.54;91.61035;95077.12;;;;
2019/07/17 03:14:49;;;;;;;8.5;7.699999;;;;;;;12.54;91.61035;95077.12;;;;
2019/07/17 03:15:50;;;;;;;8.700001;7.85;;;;;;;12.53;92.05957;95072.24;;;;
2019/07/17 03:16:51;;;;;;;8.700001;7.85;;;;;;;12.53;92.05957;95072.24;;;;
2019/07/17 03:17:52;;;;;;;8.700001;7.85;;;;;;;12.53;92.05957;95072.24;;;;
2019/07/17 03:18:53;;;;;;;8.700001;7.85;;;;;;;12.53;92.05957;95072.24;;;;
2019/07/17 03:19:54;;;;;;;8.700001;7.85;;;;;;;12.53;92.05957;95072.24;;;;
2019/07/17 03:20:55;;;;;;;8.700001;7.85;;;;;;;12.53;92.05957;95072.24;;;;
2019/07/17 03:21:57;;;;;;;8.700001;7.85;;;;;;;12.53;92.05957;95072.24;;;;
2019/07/17 03:22:58;;;;;;;8.700001;7.85;;;;;;;12.53;92.05957;95072.24;;;;
2019/07/17 03:23:59;;;;;;;8.700001;7.85;;;;;;;12.53;92.05957;95072.24;;;;
2019/07/17 03:25:00;;;;;;;8.700001;7.85;;;;;;;12.53;92.05957;95072.24;;;;
2019/07/17 03:26:01;;;;;;;8.749999;7.95;;;;;;;12.56;92.38672;95064.01;;;;
2019/07/17 03:27:03;;;;;;;8.749999;7.95;;;;;;;12.56;92.38672;95064.01;;;;
2019/07/17 03:28:04;;;;;;;8.749999;7.95;;;;;;;12.56;92.38672;95064.01;;;;
2019/07/17 03:29:05;;;;;;;8.749999;7.95;;;;;;;12.56;92.38672;95064.01;;;;
2019/07/17 03:30:06;;;;;;;8.749999;7.95;;;;;;;12.56;92.38672;95064.01;;;;
2019/07/17 03:31:07;;;;;;;8.749999;7.95;;;;;;;12.56;92.38672;95064.01;;;;
2019/07/17 03:32:08;;;;;;;8.749999;7.95;;;;;;;12.56;92.38672;95064.01;;;;
2019/07/17 03:33:09;;;;;;;8.749999;7.95;;;;;;;12.56;92.38672;95064.01;;;;
2019/07/17 03:34:10;;;;;;;8.749999;7.95;;;;;;;12.56;92.38672;95064.01;;;;
2019/07/17 03:35:12;;;;;;;8.749999;7.95;;;;;;;12.56;92.38672;95064.01;;;;
2019/07/17 03:36:13;;;;;;;8.749999;7.95;;;;;;;12.56;92.38672;95064.01;;;;
2019/07/17 03:37:14;;;;;;;9;8.2;;;;;;;12.5;92.75977;95065.94;;;;
2019/07/17 03:38:15;;;;;;;9;8.2;;;;;;;12.5;92.75977;95065.94;;;;
2019/07/17 03:39:16;;;;;;;9;8.2;;;;;;;12.5;92.75977;95065.94;;;;
2019/07/17 03:40:17;;;;;;;9;8.2;;;;;;;12.5;92.75977;95065.94;;;;
2019/07/17 03:41:19;;;;;;;9;8.2;;;;;;;12.5;92.75977;95065.94;;;;
2019/07/17 03:42:20;;;;;;;9;8.2;;;;;;;12.5;92.75977;95065.94;;;;
2019/07/17 03:43:21;;;;;;;9;8.2;;;;;;;12.5;92.75977;95065.94;;;;
2019/07/17 03:44:22;;;;;;;9;8.2;;;;;;;12.5;92.75977;95065.94;;;;
2019/07/17 03:45:23;;;;;;;9;8.2;;;;;;;12.5;92.75977;95065.94;;;;
2019/07/17 03:46:25;;;;;;;9;8.2;;;;;;;12.5;92.75977;95065.94;;;;
2019/07/17 03:47:26;;;;;;;9.450001;8.549999;;;;;;;12.55;93.01563;95077.39;;;;
2019/07/17 03:48:27;;;;;;;9.450001;8.549999;;;;;;;12.55;93.01563;95077.39;;;;
2019/07/17 03:49:28;;;;;;;9.450001;8.549999;;;;;;;12.55;93.01563;95077.39;;;;
2019/07/17 03:50:29;;;;;;;9.450001;8.549999;;;;;;;12.55;93.01563;95077.39;;;;
2019/07/17 03:51:30;;;;;;;9.450001;8.549999;;;;;;;12.55;93.01563;95077.39;;;;
2019/07/17 03:52:31;;;;;;;9.450001;8.549999;;;;;;;12.55;93.01563;95077.39;;;;
2019/07/17 03:53:32;;;;;;;9.450001;8.549999;;;;;;;12.55;93.01563;95077.39;;;;
2019/07/17 03:54:34;;;;;;;9.450001;8.549999;;;;;;;12.55;93.01563;95077.39;;;;
2019/07/17 03:55:35;;;;;;;9.450001;8.549999;;;;;;;12.55;93.01563;95077.39;;;;
2019/07/17 03:56:36;;;;;;;9.450001;8.549999;;;;;;;12.55;93.01563;95077.39;;;;
2019/07/17 03:57:37;;;;;;;9.450001;8.549999;;;;;;;12.55;93.01563;95077.39;;;;
2019/07/17 03:58:38;;;;;;;10;8.050002;;;;;;;12.55;93.44238;95076.86;;;;
2019/07/17 03:59:39;;;;;;;10;8.050002;;;;;;;12.55;93.44238;95076.86;;;;
2019/07/17 04:00:40;;;;;;;10;8.050002;;;;;;;12.55;93.44238;95076.86;;;;
2019/07/17 04:01:41;;;;;;;10;8.050002;;;;;;;12.55;93.44238;95076.86;;;;
2019/07/17 04:02:42;;;;;;;10;8.050002;;;;;;;12.55;93.44238;95076.86;;;;
2019/07/17 04:03:43;;;;;;;10;8.050002;;;;;;;12.55;93.44238;95076.86;;;;
2019/07/17 04:04:44;;;;;;;10;8.050002;;;;;;;12.55;93.44238;95076.86;;;;
2019/07/17 04:05:46;;;;;;;10;8.050002;;;;;;;12.55;93.44238;95076.86;;;;
2019/07/17 04:06:47;;;;;;;10;8.050002;;;;;;;12.55;93.44238;95076.86;;;;
2019/07/17 04:07:48;;;;;;;10;8.050002;;;;;;;12.55;93.44238;95076.86;;;;
2019/07/17 04:08:49;;;;;;;9.050001;8.250001;;;;;;;12.63;93.67285;95082.34;;;;
2019/07/17 04:09:50;;;;;;;9.050001;8.250001;;;;;;;12.63;93.67285;95082.34;;;;
2019/07/17 04:10:51;;;;;;;9.050001;8.250001;;;;;;;12.63;93.67285;95082.34;;;;
2019/07/17 04:11:52;;;;;;;9.050001;8.250001;;;;;;;12.63;93.67285;95082.34;;;;
2019/07/17 04:12:53;;;;;;;9.050001;8.250001;;;;;;;12.63;93.67285;95082.34;;;;
2019/07/17 04:13:54;;;;;;;9.050001;8.250001;;;;;;;12.63;93.67285;95082.34;;;;
2019/07/17 04:14:55;;;;;;;9.050001;8.250001;;;;;;;12.63;93.67285;95082.34;;;;
2019/07/17 04:15:56;;;;;;;9.050001;8.250001;;;;;;;12.63;93.67285;95082.34;;;;
2019/07/17 04:16:58;;;;;;;9.050001;8.250001;;;;;;;12.63;93.67285;95082.34;;;;
2019/07/17 04:17:59;;;;;;;9.050001;8.250001;;;;;;;12.63;93.67285;95082.34;;;;
2019/07/17 04:19:00;;;;;;;9.050001;8.250001;;;;;;;12.63;93.67285;95082.34;;;;
2019/07/17 04:20:01;;;;;;;9.85;8.85;;;;;;;12.68;93.93945;95073.89;;;;
2019/07/17 04:21:03;;;;;;;9.85;8.85;;;;;;;12.68;93.93945;95073.89;;;;
2019/07/17 04:22:04;;;;;;;9.85;8.85;;;;;;;12.68;93.93945;95073.89;;;;
2019/07/17 04:23:05;;;;;;;9.85;8.85;;;;;;;12.68;93.93945;95073.89;;;;
2019/07/17 04:24:06;;;;;;;9.85;8.85;;;;;;;12.68;93.93945;95073.89;;;;
2019/07/17 04:25:07;;;;;;;9.85;8.85;;;;;;;12.68;93.93945;95073.89;;;;
2019/07/17 04:26:08;;;;;;;9.85;8.85;;;;;;;12.68;93.93945;95073.89;;;;
2019/07/17 04:27:10;;;;;;;9.85;8.85;;;;;;;12.68;93.93945;95073.89;;;;
2019/07/17 04:28:11;;;;;;;9.85;8.85;;;;;;;12.68;93.93945;95073.89;;;;
2019/07/17 04:29:12;;;;;;;9.85;8.85;;;;;;;12.68;93.93945;95073.89;;;;
2019/07/17 04:30:13;;;;;;;9.349999;8.500001;;;;;;;12.91;94.29785;95068.17;;;;
2019/07/17 04:31:31;;;;;;;9.349999;8.500001;;;;;;;12.91;94.29785;95068.17;;;;
2019/07/17 04:32:32;;;;;;;9.349999;8.500001;;;;;;;12.91;94.29785;95068.17;;;;
2019/07/17 04:33:33;;;;;;;9.349999;8.500001;;;;;;;12.91;94.29785;95068.17;;;;
2019/07/17 04:34:34;;;;;;;9.349999;8.500001;;;;;;;12.91;94.29785;95068.17;;;;
2019/07/17 04:35:35;;;;;;;9.349999;8.500001;;;;;;;12.91;94.29785;95068.17;;;;
2019/07/17 04:36:36;;;;;;;9.349999;8.500001;;;;;;;12.91;94.29785;95068.17;;;;
2019/07/17 04:37:37;;;;;;;9.349999;8.500001;;;;;;;12.91;94.29785;95068.17;;;;
2019/07/17 04:38:38;;;;;;;9.349999;8.500001;;;;;;;12.91;94.29785;95068.17;;;;
2019/07/17 04:39:39;;;;;;;9.349999;8.500001;;;;;;;12.91;94.29785;95068.17;;;;
2019/07/17 04:40:40;;;;;;;9.749999;8.85;;;;;;;13.18;94.36719;95066.31;;;;
2019/07/17 04:41:42;;;;;;;9.749999;8.85;;;;;;;13.18;94.36719;95066.31;;;;
2019/07/17 04:42:43;;;;;;;9.749999;8.85;;;;;;;13.18;94.36719;95066.31;;;;
2019/07/17 04:43:44;;;;;;;9.749999;8.85;;;;;;;13.18;94.36719;95066.31;;;;
2019/07/17 04:44:45;;;;;;;9.749999;8.85;;;;;;;13.18;94.36719;95066.31;;;;
2019/07/17 04:45:46;;;;;;;9.749999;8.85;;;;;;;13.18;94.36719;95066.31;;;;
2019/07/17 04:46:47;;;;;;;9.749999;8.85;;;;;;;13.18;94.36719;95066.31;;;;
2019/07/17 04:47:48;;;;;;;9.749999;8.85;;;;;;;13.18;94.36719;95066.31;;;;
2019/07/17 04:48:49;;;;;;;9.749999;8.85;;;;;;;13.18;94.36719;95066.31;;;;
2019/07/17 04:49:50;;;;;;;9.749999;8.85;;;;;;;13.18;94.36719;95066.31;;;;
2019/07/17 04:50:52;;;;;;;9.000001;8.200001;;;;;;;13.59;94.4873;95056.08;;;;
2019/07/17 04:51:53;;;;;;;9.000001;8.200001;;;;;;;13.59;94.4873;95056.08;;;;
2019/07/17 04:52:54;;;;;;;9.000001;8.200001;;;;;;;13.59;94.4873;95056.08;;;;
2019/07/17 04:53:55;;;;;;;9.000001;8.200001;;;;;;;13.59;94.4873;95056.08;;;;
2019/07/17 04:54:56;;;;;;;9.000001;8.200001;;;;;;;13.59;94.4873;95056.08;;;;
2019/07/17 04:55:57;;;;;;;9.000001;8.200001;;;;;;;13.59;94.4873;95056.08;;;;
2019/07/17 04:56:58;;;;;;;9.000001;8.200001;;;;;;;13.59;94.4873;95056.08;;;;
2019/07/17 04:57:59;;;;;;;9.000001;8.200001;;;;;;;13.59;94.4873;95056.08;;;;
2019/07/17 04:59:00;;;;;;;9.000001;8.200001;;;;;;;13.59;94.4873;95056.08;;;;
2019/07/17 05:00:01;;;;;;;9.000001;8.200001;;;;;;;13.59;94.4873;95056.08;;;;
2019/07/17 05:01:03;;;;;;;9.000001;8.200001;;;;;;;13.59;94.4873;95056.08;;;;
2019/07/17 05:02:04;;;;;;;8.700002;7.900001;;;;;;;14.04;94.25195;95052.32;;;;
2019/07/17 05:03:05;;;;;;;8.700002;7.900001;;;;;;;14.04;94.25195;95052.32;;;;
2019/07/17 05:04:06;;;;;;;8.700002;7.900001;;;;;;;14.04;94.25195;95052.32;;;;
2019/07/17 05:05:07;;;;;;;8.700002;7.900001;;;;;;;14.04;94.25195;95052.32;;;;
2019/07/17 05:06:09;;;;;;;8.700002;7.900001;;;;;;;14.04;94.25195;95052.32;;;;
2019/07/17 05:07:10;;;;;;;8.700002;7.900001;;;;;;;14.04;94.25195;95052.32;;;;
2019/07/17 05:08:11;;;;;;;8.700002;7.900001;;;;;;;14.04;94.25195;95052.32;;;;
2019/07/17 05:09:12;;;;;;;8.700002;7.900001;;;;;;;14.04;94.25195;95052.32;;;;
2019/07/17 05:10:13;;;;;;;8.700002;7.900001;;;;;;;14.04;94.25195;95052.32;;;;
2019/07/17 05:11:14;;;;;;;8.700002;7.900001;;;;;;;14.04;94.25195;95052.32;;;;
2019/07/17 05:12:15;;;;;;;8.849999;8;;;;;;;14.59;93.89648;95051.4;;;;
2019/07/17 05:13:17;;;;;;;8.849999;8;;;;;;;14.59;93.89648;95051.4;;;;
2019/07/17 05:14:18;;;;;;;8.849999;8;;;;;;;14.59;93.89648;95051.4;;;;
2019/07/17 05:15:19;;;;;;;8.849999;8;;;;;;;14.59;93.89648;95051.4;;;;
2019/07/17 05:16:20;;;;;;;8.849999;8;;;;;;;14.59;93.89648;95051.4;;;;
2019/07/17 05:17:21;;;;;;;8.849999;8;;;;;;;14.59;93.89648;95051.4;;;;
2019/07/17 05:18:22;;;;;;;8.849999;8;;;;;;;14.59;93.89648;95051.4;;;;
2019/07/17 05:19:23;;;;;;;8.849999;8;;;;;;;14.59;93.89648;95051.4;;;;
2019/07/17 05:20:24;;;;;;;8.849999;8;;;;;;;14.59;93.89648;95051.4;;;;
2019/07/17 05:21:25;;;;;;;8.849999;8;;;;;;;14.59;93.89648;95051.4;;;;
2019/07/17 05:22:26;;;;;;;8.849999;8;;;;;;;14.59;93.89648;95051.4;;;;
2019/07/17 05:23:28;;;;;;;7.75;7.050001;;;;;;;15.11;93.44727;95041.2;;;;
2019/07/17 05:24:29;;;;;;;7.75;7.050001;;;;;;;15.11;93.44727;95041.2;;;;
2019/07/17 05:25:30;;;;;;;7.75;7.050001;;;;;;;15.11;93.44727;95041.2;;;;
2019/07/17 05:26:31;;;;;;;7.75;7.050001;;;;;;;15.11;93.44727;95041.2;;;;
2019/07/17 05:27:32;;;;;;;7.75;7.050001;;;;;;;15.11;93.44727;95041.2;;;;
2019/07/17 05:28:33;;;;;;;7.75;7.050001;;;;;;;15.11;93.44727;95041.2;;;;
2019/07/17 05:29:34;;;;;;;7.75;7.050001;;;;;;;15.11;93.44727;95041.2;;;;
2019/07/17 05:30:35;;;;;;;7.75;7.050001;;;;;;;15.11;93.44727;95041.2;;;;
2019/07/17 05:31:36;;;;;;;7.75;7.050001;;;;;;;15.11;93.44727;95041.2;;;;
2019/07/17 05:32:38;;;;;;;7.75;7.050001;;;;;;;15.11;93.44727;95041.2;;;;
2019/07/17 05:33:39;;;;;;;7.549999;6.849999;;;;;;;15.7;92.85156;95035.55;;;;
2019/07/17 05:34:40;;;;;;;7.549999;6.849999;;;;;;;15.7;92.85156;95035.55;;;;